createdAt,value
2018-04-22T00:02:35.183Z,18.89
2018-04-22T00:05:38.502Z,18.88
2018-04-22T00:08:41.772Z,18.90
2018-04-22T00:11:45.032Z,18.90
2018-04-22T00:15:00.444Z,18.85
2018-04-22T00:25:14.188Z,18.70
2018-04-22T00:35:30.084Z,18.65
2018-04-22T00:38:41.487Z,18.59
2018-04-22T00:41:45.301Z,18.36
2018-04-22T00:44:48.807Z,18.08
2018-04-22T00:47:57.664Z,17.89
2018-04-22T00:51:25.472Z,17.75
2018-04-22T00:58:00.350Z,17.59
2018-04-22T01:04:51.217Z,17.66
2018-04-22T01:08:07.482Z,17.62
2018-04-22T01:21:41.995Z,17.34
2018-04-22T01:31:53.150Z,17.05
2018-04-22T01:34:56.784Z,16.93
2018-04-22T01:38:00.345Z,16.85
2018-04-22T01:41:05.866Z,16.74
2018-04-22T01:54:55.069Z,16.50
2018-04-22T02:01:26.777Z,16.43
2018-04-22T02:04:52.492Z,16.43
2018-04-22T02:08:00.215Z,16.39
2018-04-22T02:17:59.976Z,16.02
2018-04-22T02:28:10.816Z,16.16
2018-04-22T02:35:05.082Z,16.10
2018-04-22T02:38:13.603Z,16.07
2018-04-22T02:48:26.325Z,15.55
2018-04-22T02:51:33.364Z,15.43
2018-04-22T02:54:40.646Z,15.27
2018-04-22T03:04:54.510Z,15.34
2018-04-22T03:08:07.912Z,15.46
2018-04-22T03:14:40.243Z,15.33
2018-04-22T03:17:48.287Z,15.19
2018-04-22T03:20:51.814Z,15.14
2018-04-22T03:24:01.652Z,15.06
2018-04-22T03:37:40.850Z,15.33
2018-04-22T03:40:44.235Z,15.31
2018-04-22T03:51:01.655Z,15.34
2018-04-22T03:57:44.379Z,15.38
2018-04-22T04:11:16.568Z,15.49
2018-04-22T04:18:08.152Z,16.02
2018-04-22T04:21:28.037Z,16.23
2018-04-22T04:28:18.961Z,16.54
2018-04-22T04:34:56.675Z,16.72
2018-04-22T04:38:22.656Z,16.78
2018-04-22T04:41:33.928Z,16.84
2018-04-22T04:44:37.315Z,16.84
2018-04-22T04:48:04.820Z,16.85
2018-04-22T04:51:25.171Z,16.91
2018-04-22T05:04:53.505Z,17.15
2018-04-22T05:08:15.819Z,17.22
2018-04-22T05:11:37.745Z,17.30
2018-04-22T05:25:11.511Z,17.51
2018-04-22T05:28:19.958Z,17.59
2018-04-22T05:45:15.025Z,17.91
2018-04-22T05:48:31.304Z,17.96
2018-04-22T05:51:45.724Z,18.00
2018-04-22T05:54:52.266Z,18.02
2018-04-22T05:58:08.368Z,18.10
2018-04-22T06:15:23.236Z,18.00
2018-04-22T06:18:32.850Z,18.08
2018-04-22T06:28:53.575Z,18.36
2018-04-22T06:39:08.773Z,18.66
2018-04-22T06:42:20.087Z,18.77
2018-04-22T06:45:25.582Z,18.83
2018-04-22T06:52:00.850Z,18.91
2018-04-22T06:58:44.360Z,19.07
2018-04-22T07:01:57.517Z,19.20
2018-04-22T07:05:00.965Z,19.38
2018-04-22T07:08:18.586Z,19.58
2018-04-22T07:11:26.998Z,19.76
2018-04-22T07:21:38.828Z,20.01
2018-04-22T07:24:47.667Z,20.04
2018-04-22T07:28:15.201Z,20.10
2018-04-22T07:31:31.335Z,20.28
2018-04-22T07:38:07.319Z,20.61
2018-04-22T07:41:18.187Z,20.81
2018-04-22T07:44:21.649Z,20.85
2018-04-22T07:51:03.880Z,20.97
2018-04-22T07:57:42.925Z,21.28
2018-04-22T08:01:10.019Z,21.28
2018-04-22T08:18:06.790Z,21.74
2018-04-22T08:21:21.338Z,21.76
2018-04-22T08:24:44.745Z,21.71
2018-04-22T08:42:04.093Z,22.35
2018-04-22T08:45:27.624Z,22.58
2018-04-22T08:48:33.142Z,22.54
2018-04-22T08:55:09.427Z,22.72
2018-04-22T08:59:15.959Z,22.78
2018-04-22T09:02:19.116Z,22.79
2018-04-22T09:05:22.400Z,23.07
2018-04-22T09:08:25.657Z,23.07
2018-04-22T09:11:30.489Z,23.16
2018-04-22T09:14:34.299Z,23.24
2018-04-22T09:17:37.577Z,23.40
2018-04-22T09:20:41.956Z,23.64
2018-04-22T09:23:45.184Z,23.90
2018-04-22T09:26:48.471Z,24.16
2018-04-22T09:29:51.692Z,24.05
2018-04-22T09:32:55.063Z,24.14
2018-04-22T09:35:58.351Z,24.15
2018-04-22T09:39:01.653Z,24.28
2018-04-22T09:42:05.044Z,24.41
2018-04-22T09:45:08.348Z,24.42
2018-04-22T09:48:11.539Z,24.07
2018-04-22T09:54:46.985Z,24.40
2018-04-22T09:57:50.332Z,24.68
2018-04-22T10:00:57.625Z,24.75
2018-04-22T10:04:01.053Z,24.88
2018-04-22T10:07:04.378Z,24.79
2018-04-22T10:10:08.773Z,24.97
2018-04-22T10:13:12.021Z,25.17
2018-04-22T10:16:15.421Z,25.15
2018-04-22T10:19:19.744Z,25.23
2018-04-22T10:22:24.044Z,25.37
2018-04-22T10:25:27.434Z,25.30
2018-04-22T10:28:30.675Z,25.35
2018-04-22T10:31:34.541Z,25.47
2018-04-22T10:34:37.880Z,25.58
2018-04-22T10:37:41.277Z,25.72
2018-04-22T10:40:44.725Z,25.82
2018-04-22T10:43:48.181Z,25.90
2018-04-22T10:46:51.556Z,25.79
2018-04-22T10:49:54.885Z,25.89
2018-04-22T10:52:58.111Z,26.05
2018-04-22T10:56:01.364Z,25.86
2018-04-22T10:59:06.538Z,25.97
2018-04-22T11:02:09.901Z,26.06
2018-04-22T11:08:09.631Z,26.42
2018-04-22T11:11:13.043Z,26.53
2018-04-22T11:14:16.372Z,26.76
2018-04-22T11:17:19.631Z,26.84
2018-04-22T11:20:23.032Z,26.94
2018-04-22T11:23:26.320Z,27.08
2018-04-22T11:26:29.578Z,27.20
2018-04-22T11:29:32.900Z,27.31
2018-04-22T11:32:37.445Z,27.54
2018-04-22T11:35:40.852Z,27.61
2018-04-22T11:38:44.198Z,27.57
2018-04-22T11:41:47.386Z,27.50
2018-04-22T11:44:50.758Z,27.53
2018-04-22T11:47:54.027Z,27.64
2018-04-22T11:50:57.353Z,27.81
2018-04-22T11:54:00.528Z,28.08
2018-04-22T11:57:04.621Z,28.10
2018-04-22T12:00:07.836Z,28.06
2018-04-22T12:03:11.202Z,28.14
2018-04-22T12:06:14.542Z,28.11
2018-04-22T12:09:17.830Z,28.23
2018-04-22T12:12:21.130Z,28.44
2018-04-22T12:15:24.413Z,28.24
2018-04-22T12:18:27.768Z,28.54
2018-04-22T12:21:31.060Z,28.65
2018-04-22T12:24:35.430Z,28.44
2018-04-22T12:27:38.592Z,28.70
2018-04-22T12:30:41.951Z,28.91
2018-04-22T12:33:45.092Z,28.98
2018-04-22T12:36:48.443Z,28.95
2018-04-22T12:39:51.744Z,28.72
2018-04-22T12:42:55.021Z,28.88
2018-04-22T12:45:58.397Z,29.05
2018-04-22T12:49:01.665Z,29.05
2018-04-22T12:52:05.439Z,29.08
2018-04-22T12:55:08.659Z,29.17
2018-04-22T12:58:11.918Z,29.25
2018-04-22T13:01:15.321Z,29.23
2018-04-22T13:04:18.617Z,29.42
2018-04-22T13:07:21.913Z,29.46
2018-04-22T13:10:25.216Z,29.42
2018-04-22T13:13:28.705Z,29.66
2018-04-22T13:16:32.047Z,29.64
2018-04-22T13:19:36.491Z,29.65
2018-04-22T13:22:39.776Z,29.89
2018-04-22T13:25:43.115Z,29.95
2018-04-22T13:28:46.356Z,29.77
2018-04-22T13:31:50.763Z,29.52
2018-04-22T13:34:54.455Z,29.69
2018-04-22T13:37:58.185Z,29.87
2018-04-22T13:41:01.572Z,30.06
2018-04-22T13:44:05.810Z,30.10
2018-04-22T13:47:09.068Z,30.28
2018-04-22T13:50:12.331Z,30.30
2018-04-22T13:53:15.643Z,30.25
2018-04-22T13:56:18.959Z,30.22
2018-04-22T13:59:22.276Z,30.10
2018-04-22T14:02:25.609Z,30.17
2018-04-22T14:05:28.988Z,30.30
2018-04-22T14:08:32.200Z,30.47
2018-04-22T14:11:36.157Z,30.59
2018-04-22T14:14:39.420Z,30.58
2018-04-22T14:17:42.795Z,30.61
2018-04-22T14:20:46.008Z,30.49
2018-04-22T14:23:49.375Z,30.22
2018-04-22T14:26:52.659Z,29.95
2018-04-22T14:29:55.976Z,30.03
2018-04-22T14:32:59.376Z,30.31
2018-04-22T14:36:02.768Z,29.85
2018-04-22T14:39:07.924Z,29.99
2018-04-22T14:42:11.319Z,30.05
2018-04-22T14:46:24.968Z,30.06
2018-04-22T14:49:28.296Z,30.33
2018-04-22T14:52:31.619Z,30.46
2018-04-22T14:55:36.553Z,30.44
2018-04-22T14:58:39.819Z,30.44
2018-04-22T15:01:43.020Z,30.58
2018-04-22T15:04:46.410Z,30.41
2018-04-22T15:07:49.881Z,30.25
2018-04-22T15:10:53.096Z,30.17
2018-04-22T15:13:57.188Z,29.98
2018-04-22T15:17:00.480Z,29.74
2018-04-22T15:20:04.876Z,29.63
2018-04-22T15:23:08.204Z,29.56
2018-04-22T15:26:11.517Z,29.49
2018-04-22T15:29:14.987Z,29.46
2018-04-22T15:32:18.396Z,29.37
2018-04-22T15:35:21.707Z,29.23
2018-04-22T15:38:25.008Z,29.12
2018-04-22T15:41:28.343Z,29.36
2018-04-22T15:44:31.668Z,29.39
2018-04-22T15:47:35.760Z,29.32
2018-04-22T15:50:39.051Z,29.43
2018-04-22T15:53:42.196Z,29.37
2018-04-22T15:56:45.448Z,29.27
2018-04-22T15:59:48.826Z,29.20
2018-04-22T16:02:52.553Z,29.14
2018-04-22T16:05:55.929Z,29.17
2018-04-22T16:09:00.728Z,29.01
2018-04-22T16:12:04.048Z,29.00
2018-04-22T16:15:07.340Z,28.88
2018-04-22T16:18:10.664Z,28.76
2018-04-22T16:21:14.215Z,28.89
2018-04-22T16:24:17.398Z,28.94
2018-04-22T16:27:20.614Z,28.92
2018-04-22T16:30:23.889Z,28.88
2018-04-22T16:33:27.264Z,29.00
2018-04-22T16:36:30.598Z,29.02
2018-04-22T16:39:33.961Z,28.94
2018-04-22T16:42:37.329Z,28.82
2018-04-22T16:45:40.475Z,28.66
2018-04-22T16:48:43.772Z,28.52
2018-04-22T16:51:47.104Z,28.42
2018-04-22T16:54:50.420Z,28.34
2018-04-22T16:57:53.655Z,28.25
2018-04-22T17:00:56.865Z,28.07
2018-04-22T17:04:01.620Z,28.02
2018-04-22T17:07:05.244Z,27.91
2018-04-22T17:10:08.659Z,27.84
2018-04-22T17:13:11.975Z,27.71
2018-04-22T17:16:15.180Z,27.70
2018-04-22T17:19:18.471Z,27.65
2018-04-22T17:22:21.872Z,27.70
2018-04-22T17:25:25.352Z,27.54
2018-04-22T17:28:28.732Z,27.48
2018-04-22T17:31:33.147Z,27.34
2018-04-22T17:34:36.350Z,27.31
2018-04-22T17:37:40.703Z,27.27
2018-04-22T17:40:44.078Z,27.17
2018-04-22T17:43:47.560Z,27.05
2018-04-22T17:46:50.831Z,26.93
2018-04-22T17:49:54.151Z,26.86
2018-04-22T17:52:57.541Z,26.70
2018-04-22T17:56:00.776Z,26.66
2018-04-22T17:59:04.103Z,26.57
2018-04-22T18:02:08.061Z,26.52
2018-04-22T18:05:12.288Z,26.42
2018-04-22T18:08:15.609Z,26.32
2018-04-22T18:11:19.933Z,26.38
2018-04-22T18:14:23.315Z,26.29
2018-04-22T18:17:26.607Z,26.29
2018-04-22T18:20:29.916Z,26.24
2018-04-22T18:23:33.316Z,26.12
2018-04-22T18:26:36.608Z,26.09
2018-04-22T18:29:41.168Z,26.07
2018-04-22T18:32:44.551Z,25.99
2018-04-22T18:35:47.755Z,25.95
2018-04-22T18:38:51.144Z,25.82
2018-04-22T18:41:54.373Z,25.75
2018-04-22T18:44:57.664Z,25.64
2018-04-22T18:48:01.024Z,25.35
2018-04-22T18:51:04.250Z,25.03
2018-04-22T18:54:09.682Z,24.92
2018-04-22T18:57:12.959Z,24.91
2018-04-22T19:00:16.371Z,24.86
2018-04-22T19:03:19.684Z,24.80
2018-04-22T19:06:22.954Z,24.74
2018-04-22T19:09:26.367Z,24.68
2018-04-22T19:12:29.612Z,24.58
2018-04-22T19:15:33.845Z,24.49
2018-04-22T19:18:37.183Z,24.38
2018-04-22T19:21:41.192Z,24.28
2018-04-22T19:24:44.567Z,24.23
2018-04-22T19:27:47.874Z,24.15
2018-04-22T19:30:51.121Z,24.09
2018-04-22T19:33:54.473Z,24.08
2018-04-22T19:36:57.980Z,24.00
2018-04-22T19:40:01.203Z,23.81
2018-04-22T19:43:04.526Z,23.61
2018-04-22T19:46:08.829Z,23.44
2018-04-22T19:49:12.146Z,23.39
2018-04-22T19:52:15.421Z,23.36
2018-04-22T19:55:18.791Z,23.15
2018-04-22T19:58:22.015Z,22.91
2018-04-22T20:01:25.318Z,22.88
2018-04-22T20:04:28.689Z,22.82
2018-04-22T20:07:31.953Z,22.75
2018-04-22T20:10:35.104Z,22.63
2018-04-22T20:13:39.007Z,22.59
2018-04-22T20:16:42.340Z,22.56
2018-04-22T20:19:45.653Z,22.53
2018-04-22T20:22:49.395Z,22.44
2018-04-22T20:25:52.700Z,22.45
2018-04-22T20:28:56.080Z,22.49
2018-04-22T20:31:59.358Z,22.41
2018-04-22T20:35:02.630Z,22.20
2018-04-22T20:38:05.981Z,22.07
2018-04-22T20:41:09.308Z,21.97
2018-04-22T20:44:12.610Z,22.01
2018-04-22T20:47:16.916Z,22.04
2018-04-22T20:50:20.295Z,22.04
2018-04-22T20:53:23.662Z,21.99
2018-04-22T20:56:26.985Z,21.97
2018-04-22T20:59:30.364Z,21.89
2018-04-22T21:02:33.806Z,21.85
2018-04-22T21:05:37.008Z,21.85
2018-04-22T21:08:40.305Z,21.71
2018-04-22T21:11:43.704Z,21.68
2018-04-22T21:14:47.945Z,21.70
2018-04-22T21:17:51.304Z,21.60
2018-04-22T21:20:54.567Z,21.56
2018-04-22T21:23:57.902Z,21.50
2018-04-22T21:27:05.069Z,21.45
2018-04-22T21:30:08.373Z,21.38
2018-04-22T21:33:11.619Z,21.38
2018-04-22T21:36:15.367Z,21.37
2018-04-22T21:39:18.693Z,21.35
2018-04-22T21:42:21.915Z,21.29
2018-04-22T21:45:25.235Z,21.36
2018-04-22T21:48:28.487Z,21.41
2018-04-22T21:51:31.649Z,21.49
2018-04-22T21:54:35.068Z,21.47
2018-04-22T21:57:38.344Z,21.50
2018-04-22T22:00:41.666Z,21.46
2018-04-22T22:03:45.348Z,21.46
2018-04-22T22:06:48.681Z,21.43
2018-04-22T22:09:51.921Z,21.43
2018-04-22T22:12:55.377Z,21.43
2018-04-22T22:15:58.565Z,21.36
2018-04-22T22:19:01.857Z,21.28
2018-04-22T22:22:05.272Z,21.21
2018-04-22T22:25:08.570Z,21.19
2018-04-22T22:28:11.858Z,21.13
2018-04-22T22:31:16.024Z,21.01
2018-04-22T22:34:19.308Z,20.99
2018-04-22T22:37:22.496Z,20.99
2018-04-22T22:40:25.819Z,21.04
2018-04-22T22:43:32.940Z,21.07
2018-04-22T22:46:36.180Z,21.09
2018-04-22T22:49:39.579Z,21.10
2018-04-22T22:52:42.958Z,21.12
2018-04-22T22:55:47.400Z,21.15
2018-04-22T22:58:50.781Z,21.10
2018-04-22T23:01:54.125Z,21.09
2018-04-22T23:04:57.397Z,21.07
2018-04-22T23:08:00.707Z,21.04
2018-04-22T23:11:04.071Z,21.05
2018-04-22T23:14:07.367Z,21.03
2018-04-22T23:17:10.793Z,20.99
2018-04-22T23:20:14.073Z,21.00
2018-04-22T23:23:18.617Z,20.92
2018-04-22T23:26:22.001Z,20.88
2018-04-22T23:29:25.383Z,20.80
2018-04-22T23:32:29.749Z,20.79
2018-04-22T23:35:32.988Z,20.81
2018-04-22T23:38:36.404Z,20.82
2018-04-22T23:41:39.723Z,20.81
2018-04-22T23:44:42.876Z,20.78
2018-04-22T23:47:47.371Z,20.81
2018-04-22T23:50:50.716Z,20.70
2018-04-22T23:53:54.140Z,20.66
2018-04-22T23:56:57.540Z,20.62
